sensor_id;sensor_type;location;lat;lon;timestamp;P1;durP1;ratioP1;P2;durP2;ratioP2
44139;SDS011;29803;51.048;4.686;2022-08-01T00:00:15;4.50;;;2.15;;
44139;SDS011;29803;51.048;4.686;2022-08-01T00:02:46;5.95;;;2.00;;
44139;SDS011;29803;51.048;4.686;2022-08-01T00:05:17;3.90;;;2.20;;
44139;SDS011;29803;51.048;4.686;2022-08-01T00:07:47;4.85;;;2.38;;
44139;SDS011;29803;51.048;4.686;2022-08-01T00:10:18;11.70;;;2.78;;
44139;SDS011;29803;51.048;4.686;2022-08-01T00:12:49;3.90;;;2.53;;
44139;SDS011;29803;51.048;4.686;2022-08-01T00:15:20;6.28;;;2.80;;
44139;SDS011;29803;51.048;4.686;2022-08-01T00:17:51;6.63;;;2.92;;
44139;SDS011;29803;51.048;4.686;2022-08-01T00:20:21;7.40;;;2.83;;
44139;SDS011;29803;51.048;4.686;2022-08-01T00:22:52;5.97;;;3.13;;
44139;SDS011;29803;51.048;4.686;2022-08-01T00:25:22;7.22;;;3.10;;
44139;SDS011;29803;51.048;4.686;2022-08-01T00:27:53;14.05;;;3.22;;
44139;SDS011;29803;51.048;4.686;2022-08-01T00:30:24;6.05;;;3.53;;
44139;SDS011;29803;51.048;4.686;2022-08-01T00:32:54;7.03;;;3.35;;
44139;SDS011;29803;51.048;4.686;2022-08-01T00:35:25;5.80;;;3.58;;
44139;SDS011;29803;51.048;4.686;2022-08-01T00:37:55;6.28;;;3.33;;
44139;SDS011;29803;51.048;4.686;2022-08-01T00:40:26;7.70;;;3.15;;
44139;SDS011;29803;51.048;4.686;2022-08-01T00:42:56;6.05;;;2.85;;
44139;SDS011;29803;51.048;4.686;2022-08-01T00:45:27;12.52;;;3.55;;
44139;SDS011;29803;51.048;4.686;2022-08-01T00:47:57;14.05;;;3.95;;
44139;SDS011;29803;51.048;4.686;2022-08-01T00:50:28;8.30;;;3.53;;
44139;SDS011;29803;51.048;4.686;2022-08-01T00:52:59;9.93;;;3.75;;
44139;SDS011;29803;51.048;4.686;2022-08-01T00:55:30;10.45;;;3.85;;
44139;SDS011;29803;51.048;4.686;2022-08-01T00:58:01;8.52;;;4.93;;
44139;SDS011;29803;51.048;4.686;2022-08-01T01:00:33;9.80;;;3.75;;
44139;SDS011;29803;51.048;4.686;2022-08-01T01:03:05;9.77;;;3.63;;
44139;SDS011;29803;51.048;4.686;2022-08-01T01:05:39;11.70;;;3.85;;
44139;SDS011;29803;51.048;4.686;2022-08-01T01:08:21;9.48;;;4.63;;
44139;SDS011;29803;51.048;4.686;2022-08-01T01:11:00;6.57;;;4.10;;
44139;SDS011;29803;51.048;4.686;2022-08-01T01:16:46;7.95;;;3.45;;
44139;SDS011;29803;51.048;4.686;2022-08-01T01:19:20;10.07;;;4.35;;
44139;SDS011;29803;51.048;4.686;2022-08-01T01:22:00;11.05;;;5.30;;
44139;SDS011;29803;51.048;4.686;2022-08-01T01:24:56;9.80;;;5.00;;
44139;SDS011;29803;51.048;4.686;2022-08-01T01:27:42;8.82;;;4.90;;
44139;SDS011;29803;51.048;4.686;2022-08-01T01:30:19;9.60;;;4.80;;
44139;SDS011;29803;51.048;4.686;2022-08-01T01:32:53;9.02;;;4.63;;
44139;SDS011;29803;51.048;4.686;2022-08-01T01:35:28;15.77;;;5.45;;
44139;SDS011;29803;51.048;4.686;2022-08-01T01:38:05;9.25;;;5.30;;
44139;SDS011;29803;51.048;4.686;2022-08-01T01:40:40;11.48;;;4.97;;
44139;SDS011;29803;51.048;4.686;2022-08-01T01:43:13;8.75;;;5.35;;
44139;SDS011;29803;51.048;4.686;2022-08-01T01:45:45;10.07;;;5.20;;
44139;SDS011;29803;51.048;4.686;2022-08-01T01:48:18;11.02;;;5.25;;
44139;SDS011;29803;51.048;4.686;2022-08-01T01:50:51;13.00;;;5.72;;
44139;SDS011;29803;51.048;4.686;2022-08-01T01:53:22;11.38;;;6.22;;
44139;SDS011;29803;51.048;4.686;2022-08-01T01:56:00;11.35;;;5.55;;
44139;SDS011;29803;51.048;4.686;2022-08-01T01:58:32;9.35;;;5.20;;
44139;SDS011;29803;51.048;4.686;2022-08-01T02:01:04;8.38;;;5.63;;
44139;SDS011;29803;51.048;4.686;2022-08-01T02:03:37;11.73;;;6.22;;
44139;SDS011;29803;51.048;4.686;2022-08-01T02:06:21;12.30;;;6.30;;
44139;SDS011;29803;51.048;4.686;2022-08-01T02:08:53;14.70;;;5.95;;
44139;SDS011;29803;51.048;4.686;2022-08-01T02:11:25;11.13;;;6.30;;
44139;SDS011;29803;51.048;4.686;2022-08-01T02:13:59;9.90;;;6.10;;
44139;SDS011;29803;51.048;4.686;2022-08-01T02:16:33;15.27;;;6.70;;
44139;SDS011;29803;51.048;4.686;2022-08-01T02:19:06;14.32;;;6.63;;
44139;SDS011;29803;51.048;4.686;2022-08-01T02:24:14;12.63;;;7.75;;
44139;SDS011;29803;51.048;4.686;2022-08-01T02:26:50;14.32;;;7.75;;
44139;SDS011;29803;51.048;4.686;2022-08-01T02:29:27;12.35;;;6.75;;
44139;SDS011;29803;51.048;4.686;2022-08-01T02:32:03;12.43;;;7.38;;
44139;SDS011;29803;51.048;4.686;2022-08-01T02:34:34;18.60;;;9.00;;
44139;SDS011;29803;51.048;4.686;2022-08-01T02:37:05;20.65;;;8.95;;
44139;SDS011;29803;51.048;4.686;2022-08-01T02:39:36;16.50;;;8.77;;
44139;SDS011;29803;51.048;4.686;2022-08-01T02:42:08;21.35;;;9.02;;
44139;SDS011;29803;51.048;4.686;2022-08-01T02:44:44;16.55;;;7.85;;
44139;SDS011;29803;51.048;4.686;2022-08-01T02:47:18;19.90;;;9.95;;
44139;SDS011;29803;51.048;4.686;2022-08-01T02:49:51;24.35;;;12.18;;
44139;SDS011;29803;51.048;4.686;2022-08-01T02:52:23;32.00;;;14.90;;
44139;SDS011;29803;51.048;4.686;2022-08-01T02:54:55;45.08;;;18.13;;
44139;SDS011;29803;51.048;4.686;2022-08-01T02:57:27;36.10;;;19.02;;
44139;SDS011;29803;51.048;4.686;2022-08-01T02:59:59;44.85;;;21.88;;
44139;SDS011;29803;51.048;4.686;2022-08-01T03:02:31;48.25;;;22.40;;
44139;SDS011;29803;51.048;4.686;2022-08-01T03:05:04;53.83;;;24.95;;
44139;SDS011;29803;51.048;4.686;2022-08-01T03:07:35;57.10;;;25.17;;
44139;SDS011;29803;51.048;4.686;2022-08-01T03:10:06;51.08;;;25.60;;
44139;SDS011;29803;51.048;4.686;2022-08-01T03:12:39;55.08;;;25.10;;
44139;SDS011;29803;51.048;4.686;2022-08-01T03:15:10;59.83;;;27.17;;
44139;SDS011;29803;51.048;4.686;2022-08-01T03:17:44;52.25;;;24.77;;
44139;SDS011;29803;51.048;4.686;2022-08-01T03:20:17;56.35;;;26.10;;
44139;SDS011;29803;51.048;4.686;2022-08-01T03:22:51;54.50;;;24.95;;
44139;SDS011;29803;51.048;4.686;2022-08-01T03:25:23;52.58;;;25.90;;
44139;SDS011;29803;51.048;4.686;2022-08-01T03:27:56;54.17;;;26.65;;
44139;SDS011;29803;51.048;4.686;2022-08-01T03:30:29;70.68;;;28.48;;
44139;SDS011;29803;51.048;4.686;2022-08-01T03:33:02;65.13;;;26.85;;
44139;SDS011;29803;51.048;4.686;2022-08-01T03:35:33;58.53;;;26.70;;
44139;SDS011;29803;51.048;4.686;2022-08-01T03:38:07;61.42;;;28.00;;
44139;SDS011;29803;51.048;4.686;2022-08-01T03:40:41;62.65;;;27.42;;
44139;SDS011;29803;51.048;4.686;2022-08-01T03:45:49;62.58;;;27.92;;
44139;SDS011;29803;51.048;4.686;2022-08-01T03:48:22;64.07;;;28.45;;
44139;SDS011;29803;51.048;4.686;2022-08-01T03:50:58;58.92;;;27.42;;
44139;SDS011;29803;51.048;4.686;2022-08-01T03:53:30;67.15;;;28.05;;
44139;SDS011;29803;51.048;4.686;2022-08-01T03:56:03;63.22;;;27.40;;
44139;SDS011;29803;51.048;4.686;2022-08-01T04:01:09;52.45;;;23.95;;
44139;SDS011;29803;51.048;4.686;2022-08-01T04:03:41;54.65;;;25.23;;
44139;SDS011;29803;51.048;4.686;2022-08-01T04:06:12;64.60;;;26.05;;
44139;SDS011;29803;51.048;4.686;2022-08-01T04:08:43;58.00;;;24.60;;
44139;SDS011;29803;51.048;4.686;2022-08-01T04:11:25;53.67;;;24.15;;
44139;SDS011;29803;51.048;4.686;2022-08-01T04:13:57;54.97;;;23.60;;
44139;SDS011;29803;51.048;4.686;2022-08-01T04:16:28;50.92;;;23.33;;
44139;SDS011;29803;51.048;4.686;2022-08-01T04:18:58;51.35;;;23.08;;
44139;SDS011;29803;51.048;4.686;2022-08-01T04:21:30;43.85;;;20.65;;
44139;SDS011;29803;51.048;4.686;2022-08-01T04:24:05;48.38;;;22.27;;
44139;SDS011;29803;51.048;4.686;2022-08-01T04:26:45;47.05;;;20.17;;
44139;SDS011;29803;51.048;4.686;2022-08-01T04:29:17;39.63;;;18.10;;
44139;SDS011;29803;51.048;4.686;2022-08-01T04:31:50;43.30;;;19.10;;
44139;SDS011;29803;51.048;4.686;2022-08-01T04:34:25;42.20;;;19.38;;
44139;SDS011;29803;51.048;4.686;2022-08-01T04:36:58;44.08;;;19.73;;
44139;SDS011;29803;51.048;4.686;2022-08-01T04:39:31;41.30;;;19.85;;
44139;SDS011;29803;51.048;4.686;2022-08-01T04:42:04;45.50;;;20.05;;
44139;SDS011;29803;51.048;4.686;2022-08-01T04:44:35;40.90;;;18.35;;
44139;SDS011;29803;51.048;4.686;2022-08-01T04:47:07;38.42;;;19.73;;
44139;SDS011;29803;51.048;4.686;2022-08-01T04:49:39;45.40;;;18.98;;
44139;SDS011;29803;51.048;4.686;2022-08-01T04:52:11;40.92;;;19.50;;
44139;SDS011;29803;51.048;4.686;2022-08-01T04:54:41;46.95;;;19.38;;
44139;SDS011;29803;51.048;4.686;2022-08-01T04:57:12;42.00;;;18.70;;
44139;SDS011;29803;51.048;4.686;2022-08-01T04:59:43;43.75;;;18.90;;
44139;SDS011;29803;51.048;4.686;2022-08-01T05:02:15;31.30;;;15.25;;
44139;SDS011;29803;51.048;4.686;2022-08-01T05:04:48;40.05;;;16.73;;
44139;SDS011;29803;51.048;4.686;2022-08-01T05:07:18;32.53;;;15.40;;
44139;SDS011;29803;51.048;4.686;2022-08-01T05:09:49;35.30;;;14.15;;
44139;SDS011;29803;51.048;4.686;2022-08-01T05:12:20;35.38;;;14.75;;
44139;SDS011;29803;51.048;4.686;2022-08-01T05:14:50;35.05;;;15.50;;
44139;SDS011;29803;51.048;4.686;2022-08-01T05:17:21;39.28;;;15.18;;
44139;SDS011;29803;51.048;4.686;2022-08-01T05:19:51;28.27;;;13.07;;
44139;SDS011;29803;51.048;4.686;2022-08-01T05:22:22;30.33;;;12.30;;
44139;SDS011;29803;51.048;4.686;2022-08-01T05:24:54;24.48;;;11.70;;
44139;SDS011;29803;51.048;4.686;2022-08-01T05:27:25;21.77;;;11.23;;
44139;SDS011;29803;51.048;4.686;2022-08-01T05:29:56;26.10;;;11.55;;
44139;SDS011;29803;51.048;4.686;2022-08-01T05:32:26;21.95;;;10.68;;
44139;SDS011;29803;51.048;4.686;2022-08-01T05:34:59;29.85;;;11.50;;
44139;SDS011;29803;51.048;4.686;2022-08-01T05:37:30;26.25;;;10.00;;
44139;SDS011;29803;51.048;4.686;2022-08-01T05:40:00;31.77;;;11.85;;
44139;SDS011;29803;51.048;4.686;2022-08-01T05:42:31;28.77;;;12.02;;
44139;SDS011;29803;51.048;4.686;2022-08-01T05:45:01;17.52;;;8.93;;
44139;SDS011;29803;51.048;4.686;2022-08-01T05:47:32;18.60;;;9.35;;
44139;SDS011;29803;51.048;4.686;2022-08-01T05:50:03;19.83;;;8.52;;
44139;SDS011;29803;51.048;4.686;2022-08-01T05:52:33;20.70;;;8.18;;
44139;SDS011;29803;51.048;4.686;2022-08-01T05:55:04;17.20;;;7.57;;
44139;SDS011;29803;51.048;4.686;2022-08-01T05:57:35;19.13;;;7.93;;
44139;SDS011;29803;51.048;4.686;2022-08-01T06:00:06;16.90;;;7.40;;
44139;SDS011;29803;51.048;4.686;2022-08-01T06:02:39;13.65;;;7.10;;
44139;SDS011;29803;51.048;4.686;2022-08-01T06:05:11;23.57;;;7.60;;
44139;SDS011;29803;51.048;4.686;2022-08-01T06:07:42;11.40;;;6.85;;
44139;SDS011;29803;51.048;4.686;2022-08-01T06:10:12;11.55;;;6.20;;
44139;SDS011;29803;51.048;4.686;2022-08-01T06:12:43;11.05;;;6.10;;
44139;SDS011;29803;51.048;4.686;2022-08-01T06:15:13;15.80;;;6.55;;
44139;SDS011;29803;51.048;4.686;2022-08-01T06:17:44;16.83;;;6.15;;
44139;SDS011;29803;51.048;4.686;2022-08-01T06:20:14;11.27;;;6.30;;
44139;SDS011;29803;51.048;4.686;2022-08-01T06:22:45;14.13;;;6.05;;
44139;SDS011;29803;51.048;4.686;2022-08-01T06:25:15;13.35;;;6.38;;
44139;SDS011;29803;51.048;4.686;2022-08-01T06:27:46;22.77;;;6.88;;
44139;SDS011;29803;51.048;4.686;2022-08-01T06:30:16;13.02;;;6.47;;
44139;SDS011;29803;51.048;4.686;2022-08-01T06:32:47;11.93;;;4.90;;
44139;SDS011;29803;51.048;4.686;2022-08-01T06:35:17;7.88;;;5.68;;
44139;SDS011;29803;51.048;4.686;2022-08-01T06:37:48;12.68;;;5.00;;
44139;SDS011;29803;51.048;4.686;2022-08-01T06:40:19;14.57;;;5.43;;
44139;SDS011;29803;51.048;4.686;2022-08-01T06:42:49;13.85;;;5.00;;
44139;SDS011;29803;51.048;4.686;2022-08-01T06:45:20;13.15;;;4.50;;
44139;SDS011;29803;51.048;4.686;2022-08-01T06:48:06;5.38;;;3.22;;
44139;SDS011;29803;51.048;4.686;2022-08-01T06:50:37;12.93;;;3.90;;
44139;SDS011;29803;51.048;4.686;2022-08-01T06:53:07;7.35;;;3.65;;
44139;SDS011;29803;51.048;4.686;2022-08-01T06:55:38;5.68;;;3.03;;
44139;SDS011;29803;51.048;4.686;2022-08-01T06:58:08;9.30;;;3.28;;
44139;SDS011;29803;51.048;4.686;2022-08-01T07:00:39;7.90;;;2.83;;
44139;SDS011;29803;51.048;4.686;2022-08-01T07:03:10;5.45;;;2.70;;
44139;SDS011;29803;51.048;4.686;2022-08-01T07:05:40;2.80;;;1.80;;
44139;SDS011;29803;51.048;4.686;2022-08-01T07:08:10;3.28;;;1.63;;
44139;SDS011;29803;51.048;4.686;2022-08-01T07:10:41;4.32;;;2.25;;
44139;SDS011;29803;51.048;4.686;2022-08-01T07:13:13;4.05;;;1.40;;
44139;SDS011;29803;51.048;4.686;2022-08-01T07:15:45;5.57;;;1.40;;
44139;SDS011;29803;51.048;4.686;2022-08-01T07:18:15;3.95;;;1.70;;
44139;SDS011;29803;51.048;4.686;2022-08-01T07:20:45;5.22;;;1.45;;
44139;SDS011;29803;51.048;4.686;2022-08-01T07:23:16;1.83;;;1.40;;
44139;SDS011;29803;51.048;4.686;2022-08-01T07:25:47;3.03;;;1.30;;
44139;SDS011;29803;51.048;4.686;2022-08-01T07:28:19;2.38;;;1.45;;
44139;SDS011;29803;51.048;4.686;2022-08-01T07:30:49;2.35;;;1.02;;
44139;SDS011;29803;51.048;4.686;2022-08-01T07:33:20;3.50;;;2.10;;
44139;SDS011;29803;51.048;4.686;2022-08-01T07:35:50;1.85;;;1.30;;
44139;SDS011;29803;51.048;4.686;2022-08-01T07:38:21;1.83;;;1.67;;
44139;SDS011;29803;51.048;4.686;2022-08-01T07:40:51;2.63;;;1.50;;
44139;SDS011;29803;51.048;4.686;2022-08-01T07:43:22;2.78;;;1.75;;
44139;SDS011;29803;51.048;4.686;2022-08-01T07:45:52;4.30;;;1.30;;
44139;SDS011;29803;51.048;4.686;2022-08-01T07:48:23;2.40;;;1.25;;
44139;SDS011;29803;51.048;4.686;2022-08-01T07:50:54;3.13;;;1.63;;
44139;SDS011;29803;51.048;4.686;2022-08-01T07:53:25;5.47;;;3.40;;
44139;SDS011;29803;51.048;4.686;2022-08-01T07:55:56;6.68;;;3.00;;
44139;SDS011;29803;51.048;4.686;2022-08-01T07:58:26;3.58;;;2.97;;
44139;SDS011;29803;51.048;4.686;2022-08-01T08:00:57;4.00;;;3.17;;
44139;SDS011;29803;51.048;4.686;2022-08-01T08:03:28;4.28;;;2.80;;
44139;SDS011;29803;51.048;4.686;2022-08-01T08:05:58;4.97;;;2.30;;
44139;SDS011;29803;51.048;4.686;2022-08-01T08:08:29;4.47;;;2.47;;
44139;SDS011;29803;51.048;4.686;2022-08-01T08:11:00;5.10;;;3.00;;
44139;SDS011;29803;51.048;4.686;2022-08-01T08:13:31;3.95;;;2.70;;
44139;SDS011;29803;51.048;4.686;2022-08-01T08:16:01;2.70;;;2.50;;
44139;SDS011;29803;51.048;4.686;2022-08-01T08:18:32;3.88;;;2.10;;
44139;SDS011;29803;51.048;4.686;2022-08-01T08:21:02;4.40;;;2.50;;
44139;SDS011;29803;51.048;4.686;2022-08-01T08:23:33;3.00;;;2.40;;
44139;SDS011;29803;51.048;4.686;2022-08-01T08:26:22;2.92;;;2.05;;
44139;SDS011;29803;51.048;4.686;2022-08-01T08:28:53;2.25;;;2.05;;
44139;SDS011;29803;51.048;4.686;2022-08-01T08:31:24;3.55;;;2.17;;
44139;SDS011;29803;51.048;4.686;2022-08-01T08:33:54;3.70;;;1.50;;
44139;SDS011;29803;51.048;4.686;2022-08-01T08:36:25;1.15;;;1.00;;
44139;SDS011;29803;51.048;4.686;2022-08-01T08:38:56;3.92;;;1.77;;
44139;SDS011;29803;51.048;4.686;2022-08-01T08:41:26;3.10;;;1.10;;
44139;SDS011;29803;51.048;4.686;2022-08-01T08:43:57;2.15;;;0.82;;
44139;SDS011;29803;51.048;4.686;2022-08-01T08:46:29;1.35;;;0.90;;
44139;SDS011;29803;51.048;4.686;2022-08-01T08:49:02;1.65;;;0.80;;
44139;SDS011;29803;51.048;4.686;2022-08-01T08:51:34;1.63;;;0.90;;
44139;SDS011;29803;51.048;4.686;2022-08-01T08:54:07;1.45;;;1.35;;
44139;SDS011;29803;51.048;4.686;2022-08-01T08:56:43;1.33;;;1.23;;
44139;SDS011;29803;51.048;4.686;2022-08-01T08:59:14;2.35;;;1.20;;
44139;SDS011;29803;51.048;4.686;2022-08-01T09:01:45;1.15;;;1.05;;
44139;SDS011;29803;51.048;4.686;2022-08-01T09:04:16;0.75;;;0.73;;
44139;SDS011;29803;51.048;4.686;2022-08-01T09:06:46;0.98;;;0.85;;
44139;SDS011;29803;51.048;4.686;2022-08-01T09:09:17;2.05;;;1.13;;
44139;SDS011;29803;51.048;4.686;2022-08-01T09:11:47;1.20;;;1.10;;
44139;SDS011;29803;51.048;4.686;2022-08-01T09:14:18;2.15;;;0.90;;
44139;SDS011;29803;51.048;4.686;2022-08-01T09:17:05;2.70;;;1.23;;
44139;SDS011;29803;51.048;4.686;2022-08-01T09:19:39;2.17;;;0.80;;
44139;SDS011;29803;51.048;4.686;2022-08-01T09:22:14;3.45;;;0.80;;
44139;SDS011;29803;51.048;4.686;2022-08-01T09:25:00;1.15;;;0.98;;
44139;SDS011;29803;51.048;4.686;2022-08-01T09:27:35;1.67;;;0.80;;
44139;SDS011;29803;51.048;4.686;2022-08-01T09:30:10;0.95;;;0.60;;
44139;SDS011;29803;51.048;4.686;2022-08-01T09:32:53;6.03;;;1.20;;
44139;SDS011;29803;51.048;4.686;2022-08-01T09:35:40;3.08;;;0.75;;
44139;SDS011;29803;51.048;4.686;2022-08-01T09:41:01;1.95;;;0.90;;
44139;SDS011;29803;51.048;4.686;2022-08-01T09:43:32;1.50;;;0.80;;
44139;SDS011;29803;51.048;4.686;2022-08-01T09:46:04;3.22;;;1.10;;
44139;SDS011;29803;51.048;4.686;2022-08-01T09:48:38;1.73;;;0.65;;
44139;SDS011;29803;51.048;4.686;2022-08-01T09:51:10;1.95;;;1.23;;
44139;SDS011;29803;51.048;4.686;2022-08-01T09:53:42;1.88;;;0.80;;
44139;SDS011;29803;51.048;4.686;2022-08-01T09:56:15;2.20;;;1.30;;
44139;SDS011;29803;51.048;4.686;2022-08-01T10:04:23;2.15;;;0.85;;
44139;SDS011;29803;51.048;4.686;2022-08-01T10:07:02;2.22;;;1.00;;
44139;SDS011;29803;51.048;4.686;2022-08-01T10:09:35;4.15;;;1.25;;
44139;SDS011;29803;51.048;4.686;2022-08-01T10:12:07;3.28;;;1.20;;
44139;SDS011;29803;51.048;4.686;2022-08-01T10:14:39;2.50;;;1.35;;
44139;SDS011;29803;51.048;4.686;2022-08-01T10:17:12;2.88;;;1.50;;
44139;SDS011;29803;51.048;4.686;2022-08-01T10:19:45;6.80;;;1.38;;
44139;SDS011;29803;51.048;4.686;2022-08-01T10:22:19;1.73;;;1.10;;
44139;SDS011;29803;51.048;4.686;2022-08-01T10:24:54;2.43;;;1.40;;
44139;SDS011;29803;51.048;4.686;2022-08-01T10:27:27;2.42;;;1.48;;
44139;SDS011;29803;51.048;4.686;2022-08-01T10:30:03;4.45;;;1.60;;
44139;SDS011;29803;51.048;4.686;2022-08-01T10:32:35;4.15;;;1.88;;
44139;SDS011;29803;51.048;4.686;2022-08-01T10:35:06;5.07;;;1.60;;
44139;SDS011;29803;51.048;4.686;2022-08-01T10:37:37;4.68;;;1.95;;
44139;SDS011;29803;51.048;4.686;2022-08-01T10:40:08;2.63;;;1.52;;
44139;SDS011;29803;51.048;4.686;2022-08-01T10:42:41;4.45;;;1.80;;
44139;SDS011;29803;51.048;4.686;2022-08-01T10:45:14;3.15;;;1.38;;
44139;SDS011;29803;51.048;4.686;2022-08-01T10:50:37;5.55;;;2.17;;
44139;SDS011;29803;51.048;4.686;2022-08-01T10:53:28;7.22;;;2.50;;
44139;SDS011;29803;51.048;4.686;2022-08-01T10:56:00;4.88;;;2.10;;
44139;SDS011;29803;51.048;4.686;2022-08-01T10:58:33;5.22;;;2.20;;
44139;SDS011;29803;51.048;4.686;2022-08-01T11:09:24;7.55;;;3.70;;
44139;SDS011;29803;51.048;4.686;2022-08-01T11:14:28;7.20;;;4.55;;
44139;SDS011;29803;51.048;4.686;2022-08-01T11:38:44;4.03;;;2.60;;
44139;SDS011;29803;51.048;4.686;2022-08-01T11:41:21;3.87;;;1.97;;
44139;SDS011;29803;51.048;4.686;2022-08-01T11:52:30;7.85;;;2.60;;
44139;SDS011;29803;51.048;4.686;2022-08-01T11:57:34;3.83;;;2.70;;
44139;SDS011;29803;51.048;4.686;2022-08-01T12:05:43;3.47;;;2.08;;
44139;SDS011;29803;51.048;4.686;2022-08-01T12:08:14;4.40;;;2.95;;
44139;SDS011;29803;51.048;4.686;2022-08-01T12:10:55;3.25;;;1.95;;
44139;SDS011;29803;51.048;4.686;2022-08-01T12:13:26;3.15;;;2.08;;
44139;SDS011;29803;51.048;4.686;2022-08-01T12:15:56;4.45;;;2.45;;
44139;SDS011;29803;51.048;4.686;2022-08-01T12:18:38;4.35;;;2.13;;
44139;SDS011;29803;51.048;4.686;2022-08-01T12:21:10;3.55;;;1.48;;
44139;SDS011;29803;51.048;4.686;2022-08-01T12:23:41;4.43;;;2.30;;
44139;SDS011;29803;51.048;4.686;2022-08-01T12:26:11;4.88;;;2.40;;
44139;SDS011;29803;51.048;4.686;2022-08-01T12:28:42;4.88;;;1.88;;
44139;SDS011;29803;51.048;4.686;2022-08-01T12:31:13;3.00;;;1.63;;
44139;SDS011;29803;51.048;4.686;2022-08-01T12:33:43;5.07;;;1.80;;
44139;SDS011;29803;51.048;4.686;2022-08-01T12:36:13;4.78;;;2.45;;
44139;SDS011;29803;51.048;4.686;2022-08-01T12:38:57;4.05;;;2.30;;
44139;SDS011;29803;51.048;4.686;2022-08-01T12:41:31;4.10;;;1.90;;
44139;SDS011;29803;51.048;4.686;2022-08-01T12:44:02;4.50;;;1.52;;
44139;SDS011;29803;51.048;4.686;2022-08-01T12:46:32;4.88;;;1.75;;
44139;SDS011;29803;51.048;4.686;2022-08-01T12:49:03;7.32;;;1.80;;
44139;SDS011;29803;51.048;4.686;2022-08-01T12:51:34;3.78;;;2.10;;
44139;SDS011;29803;51.048;4.686;2022-08-01T12:54:05;2.35;;;1.55;;
44139;SDS011;29803;51.048;4.686;2022-08-01T12:56:40;6.35;;;1.60;;
44139;SDS011;29803;51.048;4.686;2022-08-01T13:02:07;2.17;;;1.50;;
44139;SDS011;29803;51.048;4.686;2022-08-01T13:04:49;4.30;;;1.60;;
44139;SDS011;29803;51.048;4.686;2022-08-01T13:07:21;2.78;;;1.45;;
44139;SDS011;29803;51.048;4.686;2022-08-01T13:09:51;2.75;;;1.25;;
44139;SDS011;29803;51.048;4.686;2022-08-01T13:12:22;2.15;;;1.17;;
44139;SDS011;29803;51.048;4.686;2022-08-01T13:14:52;3.45;;;1.42;;
44139;SDS011;29803;51.048;4.686;2022-08-01T13:17:33;5.72;;;1.73;;
44139;SDS011;29803;51.048;4.686;2022-08-01T13:20:08;4.63;;;1.47;;
44139;SDS011;29803;51.048;4.686;2022-08-01T13:22:39;4.47;;;2.00;;
44139;SDS011;29803;51.048;4.686;2022-08-01T13:25:11;4.30;;;1.85;;
44139;SDS011;29803;51.048;4.686;2022-08-01T13:27:43;4.18;;;2.10;;
44139;SDS011;29803;51.048;4.686;2022-08-01T13:30:15;5.00;;;2.08;;
44139;SDS011;29803;51.048;4.686;2022-08-01T13:32:58;4.30;;;1.83;;
44139;SDS011;29803;51.048;4.686;2022-08-01T13:35:29;5.85;;;1.92;;
44139;SDS011;29803;51.048;4.686;2022-08-01T13:37:59;4.57;;;1.90;;
44139;SDS011;29803;51.048;4.686;2022-08-01T13:40:30;5.68;;;1.80;;
44139;SDS011;29803;51.048;4.686;2022-08-01T13:43:00;4.35;;;1.45;;
44139;SDS011;29803;51.048;4.686;2022-08-01T13:45:31;4.70;;;1.10;;
44139;SDS011;29803;51.048;4.686;2022-08-01T13:48:01;6.25;;;1.52;;
44139;SDS011;29803;51.048;4.686;2022-08-01T13:50:32;4.32;;;2.00;;
44139;SDS011;29803;51.048;4.686;2022-08-01T13:53:03;8.10;;;1.80;;
44139;SDS011;29803;51.048;4.686;2022-08-01T13:55:33;2.17;;;1.20;;
44139;SDS011;29803;51.048;4.686;2022-08-01T13:58:04;2.88;;;1.33;;
44139;SDS011;29803;51.048;4.686;2022-08-01T14:00:35;9.00;;;1.58;;
44139;SDS011;29803;51.048;4.686;2022-08-01T14:03:05;4.45;;;1.80;;
44139;SDS011;29803;51.048;4.686;2022-08-01T14:05:36;5.07;;;1.40;;
44139;SDS011;29803;51.048;4.686;2022-08-01T14:08:07;12.95;;;2.75;;
44139;SDS011;29803;51.048;4.686;2022-08-01T14:10:37;5.72;;;1.23;;
44139;SDS011;29803;51.048;4.686;2022-08-01T14:13:08;7.03;;;1.38;;
44139;SDS011;29803;51.048;4.686;2022-08-01T14:15:38;4.70;;;1.48;;
44139;SDS011;29803;51.048;4.686;2022-08-01T14:18:09;3.53;;;1.10;;
44139;SDS011;29803;51.048;4.686;2022-08-01T14:20:40;4.75;;;1.33;;
44139;SDS011;29803;51.048;4.686;2022-08-01T14:23:10;5.32;;;1.33;;
44139;SDS011;29803;51.048;4.686;2022-08-01T14:25:41;2.50;;;1.25;;
44139;SDS011;29803;51.048;4.686;2022-08-01T14:28:11;3.30;;;1.10;;
44139;SDS011;29803;51.048;4.686;2022-08-01T14:30:42;1.90;;;1.00;;
44139;SDS011;29803;51.048;4.686;2022-08-01T14:33:13;4.53;;;1.25;;
44139;SDS011;29803;51.048;4.686;2022-08-01T14:35:43;4.18;;;1.33;;
44139;SDS011;29803;51.048;4.686;2022-08-01T14:38:14;1.73;;;1.08;;
44139;SDS011;29803;51.048;4.686;2022-08-01T14:40:44;4.50;;;1.48;;
44139;SDS011;29803;51.048;4.686;2022-08-01T14:43:21;4.82;;;1.50;;
44139;SDS011;29803;51.048;4.686;2022-08-01T14:45:51;2.70;;;1.10;;
44139;SDS011;29803;51.048;4.686;2022-08-01T14:48:24;4.53;;;1.30;;
44139;SDS011;29803;51.048;4.686;2022-08-01T14:50:55;6.40;;;1.27;;
44139;SDS011;29803;51.048;4.686;2022-08-01T14:53:25;2.53;;;1.10;;
44139;SDS011;29803;51.048;4.686;2022-08-01T14:55:56;3.40;;;1.25;;
44139;SDS011;29803;51.048;4.686;2022-08-01T14:58:26;3.13;;;0.90;;
44139;SDS011;29803;51.048;4.686;2022-08-01T15:00:57;2.65;;;1.20;;
44139;SDS011;29803;51.048;4.686;2022-08-01T15:03:27;3.55;;;1.08;;
44139;SDS011;29803;51.048;4.686;2022-08-01T15:05:58;2.35;;;1.20;;
44139;SDS011;29803;51.048;4.686;2022-08-01T15:08:29;1.55;;;1.00;;
44139;SDS011;29803;51.048;4.686;2022-08-01T15:11:00;4.38;;;1.52;;
44139;SDS011;29803;51.048;4.686;2022-08-01T15:13:31;12.00;;;2.00;;
44139;SDS011;29803;51.048;4.686;2022-08-01T15:16:02;4.20;;;1.38;;
44139;SDS011;29803;51.048;4.686;2022-08-01T15:18:32;5.18;;;1.25;;
44139;SDS011;29803;51.048;4.686;2022-08-01T15:21:03;6.32;;;1.50;;
44139;SDS011;29803;51.048;4.686;2022-08-01T15:23:34;5.43;;;1.92;;
44139;SDS011;29803;51.048;4.686;2022-08-01T15:26:05;3.72;;;1.50;;
44139;SDS011;29803;51.048;4.686;2022-08-01T15:28:39;4.77;;;1.40;;
44139;SDS011;29803;51.048;4.686;2022-08-01T15:31:09;5.93;;;1.80;;
44139;SDS011;29803;51.048;4.686;2022-08-01T15:33:40;4.65;;;1.88;;
44139;SDS011;29803;51.048;4.686;2022-08-01T15:36:11;4.38;;;1.25;;
44139;SDS011;29803;51.048;4.686;2022-08-01T15:38:41;2.10;;;1.13;;
44139;SDS011;29803;51.048;4.686;2022-08-01T15:41:12;4.45;;;1.60;;
44139;SDS011;29803;51.048;4.686;2022-08-01T15:43:42;3.90;;;1.35;;
44139;SDS011;29803;51.048;4.686;2022-08-01T15:46:13;2.17;;;1.48;;
44139;SDS011;29803;51.048;4.686;2022-08-01T15:48:43;4.05;;;1.35;;
44139;SDS011;29803;51.048;4.686;2022-08-01T15:51:14;4.43;;;1.20;;
44139;SDS011;29803;51.048;4.686;2022-08-01T15:53:44;6.05;;;1.52;;
44139;SDS011;29803;51.048;4.686;2022-08-01T15:56:16;5.25;;;1.80;;
44139;SDS011;29803;51.048;4.686;2022-08-01T15:58:47;4.68;;;1.38;;
44139;SDS011;29803;51.048;4.686;2022-08-01T16:01:17;3.97;;;1.80;;
44139;SDS011;29803;51.048;4.686;2022-08-01T16:03:48;5.05;;;1.40;;
44139;SDS011;29803;51.048;4.686;2022-08-01T16:06:19;3.10;;;1.20;;
44139;SDS011;29803;51.048;4.686;2022-08-01T16:08:50;5.32;;;1.80;;
44139;SDS011;29803;51.048;4.686;2022-08-01T16:11:21;4.90;;;1.55;;
44139;SDS011;29803;51.048;4.686;2022-08-01T16:13:53;4.13;;;1.38;;
44139;SDS011;29803;51.048;4.686;2022-08-01T16:16:24;4.32;;;1.50;;
44139;SDS011;29803;51.048;4.686;2022-08-01T16:18:54;3.70;;;1.58;;
44139;SDS011;29803;51.048;4.686;2022-08-01T16:21:25;3.05;;;1.33;;
44139;SDS011;29803;51.048;4.686;2022-08-01T16:23:56;2.47;;;1.48;;